createdAt,value
2019-03-29T07:30:55.757Z,61.63
2019-03-29T07:33:32.405Z,61.63
2019-03-29T07:36:02.487Z,61.63
2019-03-29T07:38:30.875Z,61.63
2019-03-29T07:40:59.274Z,55.69
2019-03-29T07:43:27.729Z,54.64
2019-03-29T07:45:57.204Z,53.06
2019-03-29T07:48:29.913Z,50.46
2019-03-29T07:50:58.334Z,47.72
2019-03-29T07:53:27.791Z,47.43
2019-03-29T07:55:56.199Z,46.80
2019-03-29T07:58:24.615Z,44.82
2019-03-29T08:00:53.005Z,45.42
2019-03-29T08:03:22.663Z,46.42
2019-03-29T08:05:51.525Z,47.56
2019-03-29T08:08:24.244Z,49.47
2019-03-29T08:10:53.926Z,50.57
2019-03-29T08:13:24.233Z,51.13
2019-03-29T08:15:52.604Z,50.75
2019-03-29T08:18:22.534Z,51.28
2019-03-29T08:20:50.872Z,51.25
2019-03-29T08:23:19.283Z,49.45
2019-03-29T08:25:47.687Z,49.05
2019-03-29T08:28:16.089Z,48.17
2019-03-29T08:30:44.505Z,49.77
2019-03-29T08:33:16.560Z,49.17
2019-03-29T08:35:44.215Z,50.84
2019-03-29T08:38:12.574Z,47.49
2019-03-29T08:40:40.977Z,48.45
2019-03-29T08:43:09.371Z,46.36
2019-03-29T08:45:37.778Z,46.98
2019-03-29T08:48:10.009Z,44.34
2019-03-29T08:50:38.398Z,43.79
2019-03-29T08:53:06.845Z,47.30
2019-03-29T08:55:45.520Z,47.08
2019-03-29T08:58:05.355Z,46.44
2019-03-29T09:00:35.908Z,46.98
2019-03-29T09:03:08.267Z,47.57
2019-03-29T09:05:39.113Z,47.02
2019-03-29T09:08:06.858Z,48.52
2019-03-29T09:10:35.251Z,48.97
2019-03-29T09:13:04.532Z,48.72
2019-03-29T09:15:33.247Z,48.93
2019-03-29T09:18:01.656Z,50.30
2019-03-29T09:20:30.066Z,50.38
2019-03-29T09:22:58.465Z,51.33
2019-03-29T09:25:26.856Z,50.51
2019-03-29T09:27:55.267Z,48.58
2019-03-29T09:30:23.832Z,51.42
2019-03-29T09:32:56.073Z,49.23
2019-03-29T09:35:24.466Z,49.57
2019-03-29T09:37:56.268Z,47.44
2019-03-29T09:40:23.042Z,47.23
2019-03-29T09:43:06.162Z,47.11
2019-03-29T09:45:25.430Z,46.54
2019-03-29T09:47:55.939Z,44.44
2019-03-29T09:50:27.507Z,45.56
2019-03-29T09:52:55.202Z,45.91
2019-03-29T09:55:23.612Z,45.85
2019-03-29T09:57:52.010Z,43.96
2019-03-29T10:00:23.431Z,45.12
2019-03-29T10:02:51.094Z,45.51
2019-03-29T10:05:20.227Z,47.30
2019-03-29T10:07:49.991Z,47.40
2019-03-29T10:10:21.107Z,48.37
2019-03-29T10:12:49.507Z,50.06
2019-03-29T10:15:17.893Z,50.06
2019-03-29T10:17:46.315Z,49.13
2019-03-29T10:20:14.947Z,47.78
2019-03-29T10:22:43.361Z,47.33
2019-03-29T10:25:19.138Z,50.46
2019-03-29T10:27:42.159Z,47.10
2019-03-29T10:30:11.515Z,48.68
2019-03-29T10:32:39.909Z,48.68
2019-03-29T10:35:09.560Z,47.72
2019-03-29T10:37:39.520Z,49.72
2019-03-29T10:40:08.388Z,49.64
2019-03-29T10:42:40.408Z,48.23
2019-03-29T10:45:08.919Z,47.78
2019-03-29T10:47:43.583Z,47.21
2019-03-29T10:50:07.895Z,48.26
2019-03-29T10:52:36.306Z,46.64
2019-03-29T10:55:05.457Z,48.41
2019-03-29T10:57:33.841Z,47.70
2019-03-29T11:00:02.249Z,47.85
2019-03-29T11:02:30.659Z,45.06
2019-03-29T11:05:01.694Z,44.92
2019-03-29T11:07:30.111Z,46.07
2019-03-29T11:09:58.518Z,46.70
2019-03-29T11:12:26.925Z,47.65
2019-03-29T11:14:55.306Z,47.27
2019-03-29T11:17:23.724Z,47.32
2019-03-29T11:19:52.168Z,46.42
2019-03-29T11:22:20.577Z,46.55
2019-03-29T11:24:49.006Z,45.98
2019-03-29T11:27:22.663Z,45.58
2019-03-29T11:29:51.158Z,46.23
2019-03-29T11:32:19.565Z,46.23
2019-03-29T11:34:51.634Z,43.72
2019-03-29T11:37:20.033Z,47.37
2019-03-29T11:39:48.457Z,45.54
2019-03-29T11:42:16.840Z,46.59
2019-03-29T11:44:45.247Z,46.46
2019-03-29T11:47:13.657Z,47.61
2019-03-29T11:49:42.048Z,46.70
2019-03-29T11:52:10.584Z,45.75
2019-03-29T11:54:38.956Z,46.77
2019-03-29T11:57:07.360Z,45.31
2019-03-29T11:59:35.756Z,45.23
2019-03-29T12:02:04.173Z,45.28
2019-03-29T12:04:33.599Z,44.25
2019-03-29T12:07:03.668Z,45.22
2019-03-29T12:09:32.175Z,44.77
2019-03-29T12:12:00.575Z,45.97
2019-03-29T12:14:31.004Z,45.49
2019-03-29T12:17:31.968Z,44.51
2019-03-29T12:20:00.508Z,44.51
2019-03-29T12:22:28.946Z,46.98
2019-03-29T12:24:57.336Z,44.55
2019-03-29T12:27:25.771Z,47.08
2019-03-29T12:30:01.494Z,47.08
2019-03-29T12:32:34.434Z,47.08
2019-03-29T12:35:02.809Z,47.08
2019-03-29T12:37:31.209Z,44.94
2019-03-29T12:39:59.613Z,44.67
2019-03-29T12:42:28.052Z,44.92
2019-03-29T12:44:56.451Z,45.12
2019-03-29T12:47:24.830Z,45.03
2019-03-29T12:49:53.224Z,46.22
2019-03-29T12:52:21.654Z,46.34
2019-03-29T12:54:59.227Z,46.34
2019-03-29T12:57:27.646Z,46.34
2019-03-29T12:59:57.009Z,44.30
2019-03-29T13:02:25.401Z,45.70
2019-03-29T13:04:53.805Z,45.11
2019-03-29T13:07:22.233Z,45.51
2019-03-29T13:09:50.632Z,47.96
2019-03-29T13:12:19.107Z,47.96
2019-03-29T13:14:47.518Z,46.98
2019-03-29T13:17:16.605Z,44.43
2019-03-29T13:19:45.090Z,46.37
2019-03-29T13:22:13.986Z,45.70
2019-03-29T13:24:42.379Z,45.37
2019-03-29T13:27:14.706Z,43.18
2019-03-29T13:29:42.366Z,45.39
2019-03-29T13:32:10.712Z,45.96
2019-03-29T13:34:46.748Z,45.46
2019-03-29T13:38:07.512Z,46.92
2019-03-29T13:40:35.907Z,46.92
2019-03-29T13:44:06.125Z,46.92
2019-03-29T13:46:40.819Z,46.92
2019-03-29T13:49:09.224Z,46.92
2019-03-29T13:52:13.934Z,46.70
2019-03-29T13:54:42.323Z,46.70
2019-03-29T13:58:11.238Z,44.73
2019-03-29T14:00:39.652Z,44.73
2019-03-29T14:03:17.613Z,44.73
2019-03-29T14:05:46.223Z,44.73
2019-03-29T14:08:22.624Z,44.73
2019-03-29T14:10:53.708Z,44.73
2019-03-29T14:14:01.741Z,44.73
2019-03-29T14:16:30.129Z,44.73
2019-03-29T14:18:58.532Z,45.50
2019-03-29T14:21:26.963Z,47.50
2019-03-29T14:23:55.437Z,45.47
2019-03-29T14:26:23.829Z,45.54
2019-03-29T14:28:52.254Z,45.54
2019-03-29T14:31:20.634Z,47.65
2019-03-29T14:34:57.739Z,46.83
2019-03-29T14:37:26.134Z,46.83
2019-03-29T14:39:57.614Z,44.86
2019-03-29T14:42:26.028Z,44.86
2019-03-29T14:44:54.441Z,46.51
2019-03-29T14:47:22.850Z,46.51
2019-03-29T14:49:52.186Z,46.40
2019-03-29T14:52:20.596Z,45.60
2019-03-29T14:54:49.003Z,47.32
2019-03-29T14:57:17.394Z,46.46
2019-03-29T14:59:45.797Z,46.77
2019-03-29T15:02:14.196Z,48.25
2019-03-29T15:04:42.609Z,47.90
2019-03-29T15:07:11.163Z,46.69
2019-03-29T15:09:39.593Z,46.71
2019-03-29T15:12:08.042Z,46.73
2019-03-29T15:14:38.360Z,46.40
2019-03-29T15:17:06.896Z,46.94
2019-03-29T15:19:52.007Z,46.94
2019-03-29T15:22:20.397Z,46.94
2019-03-29T15:25:29.490Z,46.94
2019-03-29T15:27:57.882Z,46.94
2019-03-29T15:30:26.307Z,48.60
2019-03-29T15:33:14.689Z,48.49
2019-03-29T15:35:43.098Z,48.49
2019-03-29T15:39:16.679Z,48.95
2019-03-29T15:41:45.877Z,48.95
2019-03-29T15:44:14.279Z,47.80
2019-03-29T15:46:42.707Z,48.17
2019-03-29T15:49:11.101Z,47.11
2019-03-29T15:51:39.506Z,48.28
2019-03-29T15:54:07.928Z,47.39
2019-03-29T15:56:36.351Z,49.08
2019-03-29T15:59:04.745Z,48.35
2019-03-29T16:01:33.639Z,49.45
2019-03-29T16:04:02.037Z,50.27
2019-03-29T16:06:30.610Z,49.18
2019-03-29T16:08:59.217Z,48.79
2019-03-29T16:11:27.752Z,49.08
2019-03-29T16:13:56.177Z,49.08
2019-03-29T16:16:24.580Z,48.52
2019-03-29T16:18:52.987Z,49.78
2019-03-29T16:21:21.421Z,50.26
2019-03-29T16:23:49.809Z,50.66
2019-03-29T16:26:18.405Z,50.47
2019-03-29T16:28:46.824Z,51.63
2019-03-29T16:31:15.739Z,51.34
2019-03-29T16:33:44.683Z,51.34
2019-03-29T16:36:13.091Z,51.34
2019-03-29T16:38:41.945Z,51.54
2019-03-29T16:41:10.369Z,53.61
2019-03-29T16:43:38.789Z,52.56
2019-03-29T16:46:07.296Z,52.51
2019-03-29T16:48:35.711Z,52.51
2019-03-29T16:51:04.184Z,52.27
2019-03-29T16:53:32.589Z,52.27
2019-03-29T16:56:01.106Z,53.00
2019-03-29T16:58:29.508Z,53.00
2019-03-29T17:00:57.916Z,53.98
2019-03-29T17:03:27.419Z,53.35
2019-03-29T17:05:55.820Z,53.65
2019-03-29T17:08:24.300Z,54.30
2019-03-29T17:10:52.708Z,53.82
2019-03-29T17:13:21.324Z,53.89
2019-03-29T17:16:00.978Z,54.45
2019-03-29T17:18:29.243Z,55.04
2019-03-29T17:20:50.128Z,55.50
2019-03-29T17:23:18.527Z,55.26
2019-03-29T17:25:51.380Z,55.79
2019-03-29T17:28:23.507Z,56.05
2019-03-29T17:30:52.807Z,56.09
2019-03-29T17:33:22.512Z,56.74
2019-03-29T17:35:54.206Z,56.98
2019-03-29T17:38:22.626Z,57.08
2019-03-29T17:40:51.037Z,58.49
2019-03-29T17:43:19.435Z,57.88
2019-03-29T17:45:47.852Z,58.21
2019-03-29T17:48:16.239Z,58.90
2019-03-29T17:50:48.552Z,58.86
2019-03-29T17:53:16.979Z,58.91
2019-03-29T17:55:45.380Z,59.39
2019-03-29T17:58:13.804Z,59.39
2019-03-29T18:00:42.837Z,60.46
2019-03-29T18:03:59.931Z,60.46
2019-03-29T18:11:58.132Z,60.46
2019-03-29T18:14:26.571Z,60.46
2019-03-29T18:18:33.720Z,100.00
2019-03-29T18:22:06.915Z,60.46
2019-03-29T18:24:34.637Z,60.46
2019-03-29T18:28:06.071Z,64.15
2019-03-29T18:30:37.024Z,64.15
2019-03-29T18:33:06.389Z,65.02
2019-03-29T18:35:34.893Z,100.00
2019-03-29T18:38:54.542Z,65.02
2019-03-29T18:41:23.020Z,65.02
2019-03-29T18:43:51.455Z,66.73
2019-03-29T18:46:44.712Z,66.73
2019-03-29T18:49:10.809Z,66.62
2019-03-29T18:51:39.219Z,66.88
2019-03-29T18:54:07.701Z,66.83
2019-03-29T18:56:36.113Z,67.31
2019-03-29T18:59:05.447Z,67.37
2019-03-29T19:01:33.934Z,67.37
2019-03-29T19:04:02.479Z,67.49
2019-03-29T19:06:30.840Z,67.28
2019-03-29T19:08:59.254Z,69.04
2019-03-29T19:11:28.760Z,69.11
2019-03-29T19:13:59.304Z,67.80
2019-03-29T19:16:27.740Z,67.92
2019-03-29T19:19:24.131Z,67.92
2019-03-29T19:21:52.524Z,67.92
2019-03-29T19:24:20.927Z,68.93
2019-03-29T19:26:51.759Z,68.93
2019-03-29T19:29:20.378Z,68.93
2019-03-29T19:31:48.764Z,68.86
2019-03-29T19:34:20.938Z,69.79
2019-03-29T19:36:49.333Z,69.79
2019-03-29T19:39:18.009Z,68.88
2019-03-29T19:41:46.377Z,69.36
2019-03-29T19:44:14.802Z,69.20
2019-03-29T19:46:43.253Z,69.69
2019-03-29T19:49:11.643Z,69.46
2019-03-29T19:51:40.055Z,69.97
2019-03-29T19:54:12.439Z,70.25
2019-03-29T19:56:41.581Z,70.43
2019-03-29T19:59:14.235Z,71.45
2019-03-29T20:01:42.632Z,71.20
2019-03-29T20:04:11.028Z,70.89
2019-03-29T20:06:39.490Z,71.23
2019-03-29T20:09:51.191Z,71.22
2019-03-29T20:12:19.594Z,71.22
2019-03-29T20:14:48.052Z,71.22
2019-03-29T20:17:26.898Z,71.41
2019-03-29T20:19:46.600Z,72.63
2019-03-29T20:23:09.442Z,73.27
2019-03-29T20:26:49.274Z,73.27
2019-03-29T20:31:54.716Z,73.27
2019-03-29T20:34:22.347Z,73.27
2019-03-29T20:36:50.756Z,73.62
2019-03-29T20:39:19.143Z,74.63
2019-03-29T20:41:48.581Z,74.63
2019-03-29T20:44:17.218Z,75.02
2019-03-29T20:46:45.675Z,73.72
2019-03-29T20:49:14.099Z,73.50
2019-03-29T20:51:42.479Z,73.76
2019-03-29T20:54:10.919Z,74.22
2019-03-29T20:56:39.326Z,74.44
2019-03-29T20:59:07.741Z,73.94
2019-03-29T21:01:36.149Z,74.20
2019-03-29T21:04:04.627Z,73.79
2019-03-29T21:06:33.081Z,73.83
2019-03-29T21:09:01.466Z,73.46
2019-03-29T21:11:29.931Z,74.43
2019-03-29T21:13:58.315Z,74.46
2019-03-29T21:16:26.719Z,74.84
2019-03-29T21:18:55.123Z,74.72
2019-03-29T21:21:23.522Z,73.94
2019-03-29T21:23:51.942Z,75.05
2019-03-29T21:26:20.331Z,75.27
2019-03-29T21:28:48.725Z,76.02
2019-03-29T21:31:17.216Z,75.09
2019-03-29T21:33:47.723Z,75.19
2019-03-29T21:36:18.073Z,74.69
2019-03-29T21:38:48.320Z,74.38
2019-03-29T21:41:19.400Z,74.50
2019-03-29T21:43:47.855Z,74.17
2019-03-29T21:46:16.238Z,73.66
2019-03-29T21:48:44.657Z,74.60
2019-03-29T21:51:13.060Z,74.94
2019-03-29T21:53:43.796Z,74.29
2019-03-29T21:56:11.623Z,73.33
2019-03-29T21:58:44.073Z,73.40
2019-03-29T22:01:13.504Z,73.15
2019-03-29T22:03:41.901Z,73.51
2019-03-29T22:06:10.345Z,73.47
2019-03-29T22:08:39.684Z,74.21
2019-03-29T22:11:08.672Z,74.86
2019-03-29T22:13:42.182Z,75.26
2019-03-29T22:16:10.617Z,74.54
2019-03-29T22:18:39.007Z,74.76
2019-03-29T22:21:07.413Z,74.99
2019-03-29T22:23:35.825Z,75.18
2019-03-29T22:26:07.659Z,75.47
2019-03-29T22:28:37.907Z,75.92
2019-03-29T22:31:07.209Z,76.74
2019-03-29T22:33:35.701Z,77.34
2019-03-29T22:36:06.493Z,77.02
2019-03-29T22:38:35.925Z,76.37
2019-03-29T22:41:04.316Z,75.80
2019-03-29T22:43:32.728Z,75.54
2019-03-29T22:46:02.138Z,75.80
2019-03-29T22:48:30.526Z,76.17
2019-03-29T22:50:58.972Z,76.55
2019-03-29T22:53:27.394Z,76.74
2019-03-29T22:55:55.800Z,76.56
2019-03-29T22:58:24.300Z,76.41
2019-03-29T23:00:55.305Z,76.34
2019-03-29T23:03:24.046Z,76.18
2019-03-29T23:05:52.480Z,76.39
2019-03-29T23:08:22.001Z,76.64
2019-03-29T23:10:50.418Z,76.70
2019-03-29T23:13:18.810Z,76.72
2019-03-29T23:15:47.230Z,76.43
2019-03-29T23:18:15.684Z,75.90
2019-03-29T23:20:44.042Z,77.53
2019-03-29T23:23:12.464Z,77.82
2019-03-29T23:25:43.413Z,78.08
2019-03-29T23:28:12.912Z,77.76
2019-03-29T23:30:41.316Z,77.23
2019-03-29T23:33:09.716Z,76.68
2019-03-29T23:35:38.114Z,75.96
2019-03-29T23:38:06.548Z,75.96
2019-03-29T23:40:34.931Z,76.03
2019-03-29T23:43:03.320Z,76.24
2019-03-29T23:45:31.734Z,75.83
2019-03-29T23:48:00.130Z,75.68
2019-03-29T23:50:28.532Z,75.47
2019-03-29T23:52:56.931Z,76.03
2019-03-29T23:55:25.365Z,76.61
2019-03-29T23:57:53.771Z,77.45
